Green Level, North Carolina
Current Conditions -  °F | °C
As of 3:54 AM on Wednesday 22 Oct 2014 (Local Time) from KBUY Reporting Station
Clear Clear  
Wind Chill: 46°   Ceiling: Unl
Heat Index: 49°   Visibility: 10mi
Dew Point: 39°   Wind: 7mph
Humidity: 69%   Direction: 290°WNW
Pressure: 29.95"   Gusts: NA
Location:  36.2012°N, 79.3807°W
Report Text: KBUY 220754Z AUTO 29006KT 10SM CLR 09/04 A2995 RMK AO2 SLP140 T00940039
Loading
Personal Weather Stations






























Interactive Weather Map
Tropical Storm Tracking
New forecast layout! Learn more

10-Day Weather Forecast

Advertisements
Track Severe Weather on mobile